Hovedside
METAR-TAF:

METAR-TAF

Lufthavner :

Tenerife Sør lufthavn

Tenerife Sur, Spania

breddegrad: 28-03N, lengdegrad: 016-34W, høyde over havet: 64 m

Gjeldene værobservasjon

Denne rapporten ble laget for 13 minutter siden, klokken 05:30 UTC
Vind 7 kt fra Øst-nordøst
Temperatur 21°C
Luftfuktighet 69%
Trykk 1016 hPa
Sikt 10 km eller mer
Brutte skyer i en høyde av 2700 ft

METAR: GCTS 190530Z 06007KT 9999 BKN027 21/15 Q1016 NOSIG

Tid: 06:43 (05:43 UTC)

Varsel

Denne rapporten ble laget for 3 timer og 43 minutter siden, klokken 02:00 UTC
Varsel gyldig fra 19. klokken 03 UTC til 20. klokken 03 UTC
Vind 7 kt fra Nord-nordøst
Sikt 10 km eller mer
Få skyer i en høyde av 2500 ft
Blir
fra 19. klokken 08 UTC til 19. klokken 10 UTC
Vind 13 kt fra Øst
Blir
fra 19. klokken 21 UTC til 19. klokken 23 UTC
Vind 5 kt fra Vest-sørvest

TAF: GCTS 190200Z 1903/2003 02007KT 9999 FEW025 TX26/1914Z TN18/1906Z BECMG 1908/1910 08013KT BECMG 1921/1923 24005KT

Værobservasjoner og værvarsel for over 4000 flyplasser (METAR- og TAF-rapporter).

Tilgjengelige stasjoner er representert av de røde og gule prikkene på kartet.

Hold musepekeren over prikken for å se navnet på stasjonen.

Klikk så for å se værobservasjoner og -varsler.

For å forandre kartet kan du klikke på den grønne knappen med svart kryss for å zoome inn, på den grønne knappen med strek for å zoome ut, eller på de grønne pilene for å se tilstøtende kart.


METAR-TAF: